Time;durP1;ratioP1;P1;durP2;ratioP2;P2;SDS_P1;SDS_P2;PMS_P1;PMS_P2;Temp;Humidity;BMP_temperature;BMP_pressure;BME280_temperature;BME280_humidity;BME280_pressure;Samples;Min_cycle;Max_cycle;Signal;HPM_P1;HPM_P2
2023/03/09 08:49:28;;;;;;;30.42;25.15;;;1.70;1.00;;;;;;5125596;27;20944;-79
2023/03/09 08:51:55;;;;;;;27.02;22.83;;;1.70;1.00;;;;;;5138210;27;20238;-79
2023/03/09 08:54:22;;;;;;;26.40;22.13;;;1.80;1.00;;;;;;5156602;27;20229;-79
2023/03/09 08:56:49;;;;;;;26.98;23.50;;;1.80;1.00;;;;;;5154018;27;20231;-80
2023/03/09 08:59:16;;;;;;;29.30;23.55;;;1.80;1.00;;;;;;5151221;27;20423;-78
2023/03/09 09:01:43;;;;;;;29.15;23.55;;;1.80;1.00;;;;;;5154730;27;20279;-78
2023/03/09 09:04:11;;;;;;;24.33;20.45;;;1.80;1.00;;;;;;5156310;27;20308;-80
2023/03/09 09:06:39;;;;;;;26.45;23.35;;;1.90;1.00;;;;;;5154505;27;21286;-78
2023/03/09 09:09:07;;;;;;;28.90;22.67;;;2.00;1.00;;;;;;5154722;27;20225;-79
2023/03/09 09:11:34;;;;;;;27.42;21.05;;;2.10;1.00;;;;;;5156062;27;20338;-78
2023/03/09 09:14:02;;;;;;;25.50;20.00;;;2.20;1.00;;;;;;5158803;27;20228;-78
2023/03/09 09:16:29;;;;;;;23.67;21.13;;;2.20;1.00;;;;;;5146066;27;20368;-78
2023/03/09 09:18:56;;;;;;;24.60;21.08;;;2.20;1.00;;;;;;5152320;27;20887;-79
2023/03/09 09:21:24;;;;;;;25.35;21.55;;;2.30;1.00;;;;;;5156702;27;20287;-77
2023/03/09 09:23:54;;;;;;;26.52;22.85;;;2.40;1.00;;;;;;5158668;27;20995;-78
2023/03/09 09:26:21;;;;;;;26.58;20.35;;;2.40;1.00;;;;;;5155233;27;20717;-78
2023/03/09 09:28:48;;;;;;;27.05;21.25;;;2.50;1.00;;;;;;5151878;27;20796;-78
2023/03/09 09:31:19;;;;;;;24.17;21.15;;;2.50;1.00;;;;;;5155685;27;20229;-80
2023/03/09 09:33:47;;;;;;;25.67;20.25;;;2.60;1.00;;;;;;5140576;27;20234;-80
2023/03/09 09:36:16;;;;;;;24.20;20.27;;;2.60;1.00;;;;;;5159514;27;20247;-80
2023/03/09 09:38:45;;;;;;;23.80;20.30;;;2.70;1.00;;;;;;5158092;27;20315;-79
2023/03/09 09:41:19;;;;;;;23.73;20.58;;;2.60;1.00;;;;;;5158426;27;21004;-80
2023/03/09 09:43:47;;;;;;;26.73;22.15;;;2.70;1.00;;;;;;5153170;27;21219;-79
2023/03/09 09:46:17;;;;;;;23.17;20.65;;;2.70;1.00;;;;;;5151495;27;20285;-80
2023/03/09 09:48:46;;;;;;;24.77;21.55;;;2.80;1.00;;;;;;5156244;27;20245;-80
2023/03/09 09:51:41;;;;;;;24.63;21.10;;;2.80;1.00;;;;;;5152913;27;20304;-79
2023/03/09 09:54:17;;;;;;;24.75;21.25;;;2.80;1.00;;;;;;5153914;27;21141;-79
2023/03/09 09:56:50;;;;;;;22.98;19.75;;;2.80;1.00;;;;;;5153404;27;20237;-78
2023/03/09 09:59:23;;;;;;;24.17;21.08;;;2.80;1.00;;;;;;5150610;27;20369;-78
2023/03/09 10:01:59;;;;;;;24.77;21.25;;;2.80;1.00;;;;;;5136668;27;21108;-79
2023/03/09 10:04:32;;;;;;;26.40;21.05;;;2.90;1.00;;;;;;5137115;27;20245;-77
2023/03/09 10:07:05;;;;;;;24.83;22.15;;;3.00;1.00;;;;;;5129259;27;20903;-77
2023/03/09 10:09:39;;;;;;;26.23;22.13;;;3.10;1.00;;;;;;5127357;27;20237;-79
2023/03/09 10:12:13;;;;;;;23.35;20.17;;;3.20;1.00;;;;;;5138132;27;20270;-79
2023/03/09 10:14:45;;;;;;;23.98;19.50;;;3.20;1.00;;;;;;5131645;27;20240;-80
2023/03/09 10:17:17;;;;;;;23.38;20.70;;;3.20;1.00;;;;;;5142338;27;20631;-80
2023/03/09 10:19:46;;;;;;;25.83;20.13;;;3.20;1.00;;;;;;5136415;27;20246;-79
2023/03/09 10:22:20;;;;;;;29.38;21.45;;;3.10;1.00;;;;;;5135953;27;20652;-79
2023/03/09 10:24:50;;;;;;;24.25;20.15;;;3.10;1.00;;;;;;5139603;27;20238;-78
2023/03/09 10:27:21;;;;;;;27.50;22.23;;;3.10;1.00;;;;;;5144494;27;20226;-79
2023/03/09 10:29:55;;;;;;;27.98;21.27;;;3.10;1.00;;;;;;5137974;27;20231;-79
2023/03/09 10:32:27;;;;;;;25.48;19.95;;;3.10;1.00;;;;;;5134044;27;20234;-78
2023/03/09 10:34:59;;;;;;;24.13;21.55;;;3.10;1.00;;;;;;5133696;27;20239;-80
2023/03/09 10:37:29;;;;;;;22.48;20.05;;;3.10;1.00;;;;;;5136083;27;20238;-80
2023/03/09 10:39:57;;;;;;;23.27;19.23;;;3.20;1.00;;;;;;5133282;27;20321;-78
2023/03/09 10:42:27;;;;;;;27.33;23.23;;;3.10;1.00;;;;;;5134486;27;20349;-80
2023/03/09 10:45:15;;;;;;;23.80;21.20;;;3.10;1.00;;;;;;5147445;27;20235;-80
2023/03/09 10:47:59;;;;;;;22.95;19.95;;;3.10;1.00;;;;;;5141330;27;20244;-79
2023/03/09 10:50:29;;;;;;;22.98;20.48;;;3.10;1.00;;;;;;5140854;27;20762;-79
2023/03/09 10:52:57;;;;;;;24.15;20.00;;;3.00;1.00;;;;;;5136763;27;20238;-79
2023/03/09 10:55:36;;;;;;;25.13;19.85;;;2.90;1.00;;;;;;5133933;27;20237;-78
2023/03/09 10:58:16;;;;;;;23.33;20.58;;;2.80;1.00;;;;;;5132284;27;20230;-79
2023/03/09 11:00:57;;;;;;;24.85;21.02;;;2.80;1.00;;;;;;5135933;27;20428;-78
2023/03/09 11:03:29;;;;;;;27.35;21.60;;;2.80;1.00;;;;;;5131625;27;20329;-78
2023/03/09 11:06:24;;;;;;;27.05;21.35;;;2.80;1.00;;;;;;5134554;27;20307;-78
2023/03/09 11:09:07;;;;;;;22.15;19.75;;;2.80;1.00;;;;;;5131845;27;20318;-79
2023/03/09 11:11:34;;;;;;;23.85;19.88;;;2.70;1.00;;;;;;5137327;27;21926;-79
2023/03/09 11:14:03;;;;;;;25.05;22.05;;;2.70;1.00;;;;;;5142254;27;20291;-79
2023/03/09 11:16:34;;;;;;;25.70;21.15;;;2.70;1.00;;;;;;5132301;27;20243;-80
2023/03/09 11:19:14;;;;;;;25.83;20.98;;;2.70;1.00;;;;;;5135380;27;20233;-81
2023/03/09 11:21:48;;;;;;;24.95;21.73;;;2.70;1.00;;;;;;5138533;27;20317;-81
2023/03/09 11:24:17;;;;;;;25.52;21.10;;;2.90;1.00;;;;;;5137768;27;20341;-81
2023/03/09 11:26:48;;;;;;;25.42;21.40;;;3.00;1.00;;;;;;5130284;27;20233;-79
2023/03/09 11:29:24;;;;;;;23.70;21.00;;;3.10;1.00;;;;;;5132068;27;20331;-80
2023/03/09 11:31:51;;;;;;;25.60;22.05;;;3.20;1.00;;;;;;5135835;27;20230;-80
2023/03/09 11:34:28;;;;;;;25.67;21.15;;;3.10;1.00;;;;;;5134075;27;20319;-79
2023/03/09 11:36:59;;;;;;;26.30;22.38;;;3.10;1.00;;;;;;5131313;27;20311;-80
2023/03/09 11:39:33;;;;;;;26.52;22.58;;;3.00;1.00;;;;;;5141385;27;20234;-80
2023/03/09 11:42:03;;;;;;;23.45;20.75;;;3.00;1.00;;;;;;5139660;27;20326;-79
2023/03/09 11:44:36;;;;;;;27.63;24.55;;;3.00;1.00;;;;;;5139556;27;20235;-80
2023/03/09 11:47:06;;;;;;;26.33;20.83;;;3.00;1.00;;;;;;5133883;27;20346;-80
2023/03/09 11:49:35;;;;;;;24.65;21.98;;;3.00;1.00;;;;;;5134857;27;20322;-79
2023/03/09 11:52:04;;;;;;;27.88;23.58;;;3.00;1.00;;;;;;5133634;27;20246;-80
2023/03/09 11:54:34;;;;;;;31.77;23.52;;;3.00;1.00;;;;;;5138150;27;20235;-79
2023/03/09 11:57:05;;;;;;;29.73;23.45;;;3.10;1.00;;;;;;5140105;27;20310;-79
2023/03/09 11:59:41;;;;;;;25.27;22.42;;;3.20;1.00;;;;;;5141321;27;20315;-80
2023/03/09 12:02:18;;;;;;;28.42;23.65;;;3.30;1.00;;;;;;5137193;27;20337;-82
2023/03/09 12:04:53;;;;;;;26.48;22.75;;;3.30;1.00;;;;;;5138706;27;20704;-84
2023/03/09 12:07:25;;;;;;;28.27;23.83;;;3.20;1.00;;;;;;5144228;27;20237;-83
2023/03/09 12:10:00;;;;;;;28.50;23.35;;;3.20;1.00;;;;;;5141396;27;20226;-83
2023/03/09 12:12:33;;;;;;;29.58;24.50;;;3.30;1.00;;;;;;5141933;27;20265;-80
2023/03/09 12:15:07;;;;;;;29.80;24.33;;;3.30;1.00;;;;;;5138991;27;21078;-81
2023/03/09 12:17:44;;;;;;;32.03;23.70;;;3.30;1.00;;;;;;5134541;27;20232;-84
2023/03/09 12:20:22;;;;;;;34.88;24.30;;;3.20;1.00;;;;;;5141039;27;20228;-80
2023/03/09 12:22:51;;;;;;;34.28;24.85;;;3.10;1.00;;;;;;5139523;27;20226;-86
2023/03/09 12:25:21;;;;;;;29.70;24.17;;;3.00;1.00;;;;;;5144682;27;20748;-83
2023/03/09 12:27:50;;;;;;;29.42;23.55;;;3.00;1.00;;;;;;5142131;27;20230;-82
2023/03/09 12:30:30;;;;;;;28.50;24.05;;;3.10;1.00;;;;;;5142952;27;20230;-81
2023/03/09 12:33:00;;;;;;;32.90;25.55;;;3.10;1.00;;;;;;5134645;27;20230;-82
2023/03/09 12:35:57;;;;;;;30.42;24.63;;;3.20;1.00;;;;;;5141592;27;21049;-79
2023/03/09 12:38:27;;;;;;;30.58;25.23;;;3.30;1.00;;;;;;5139445;27;20238;-82
2023/03/09 12:40:55;;;;;;;27.65;24.65;;;3.30;1.00;;;;;;5137520;27;20264;-81
2023/03/09 12:43:52;;;;;;;33.33;26.02;;;3.30;1.00;;;;;;5135589;27;20242;-82
2023/03/09 12:47:03;;;;;;;30.23;24.17;;;3.30;1.00;;;;;;5138950;27;20230;-81
2023/03/09 12:49:35;;;;;;;30.85;24.13;;;3.40;1.00;;;;;;5138502;27;20238;-79
2023/03/09 12:52:34;;;;;;;27.38;24.00;;;3.20;1.00;;;;;;5144248;27;20326;-80
2023/03/09 12:55:12;;;;;;;31.25;24.02;;;3.30;1.00;;;;;;5139548;27;20234;-80
2023/03/09 12:57:40;;;;;;;29.95;24.73;;;3.40;1.00;;;;;;5139190;27;21051;-82
2023/03/09 13:00:30;;;;;;;27.33;23.90;;;3.50;1.00;;;;;;5141868;27;20262;-81
2023/03/09 13:03:03;;;;;;;31.13;25.02;;;3.60;1.00;;;;;;5126413;27;20254;-83
2023/03/09 13:05:33;;;;;;;29.42;23.75;;;3.60;1.00;;;;;;5128221;27;20242;-81
2023/03/09 13:08:04;;;;;;;27.98;23.63;;;3.70;1.00;;;;;;5136696;27;20319;-79
2023/03/09 13:10:33;;;;;;;28.67;24.75;;;3.70;1.00;;;;;;5138094;27;20256;-82
2023/03/09 13:13:32;;;;;;;31.52;24.88;;;3.80;1.00;;;;;;5141538;27;20304;-80
2023/03/09 13:16:47;;;;;;;26.48;22.63;;;3.80;1.00;;;;;;5138421;27;20233;-81
2023/03/09 13:19:53;;;;;;;27.88;23.95;;;3.70;1.00;;;;;;5059983;28;20694;-80
2023/03/09 13:22:40;;;;;;;31.63;25.80;;;3.60;1.00;;;;;;5138195;27;20230;-80
2023/03/09 13:25:36;;;;;;;56.58;40.55;;;3.60;1.00;;;;;;5142964;27;20230;-80
2023/03/09 13:28:14;;;;;;;31.25;25.05;;;3.60;1.00;;;;;;5138813;27;20234;-79
2023/03/09 13:30:44;;;;;;;30.83;24.40;;;3.60;1.00;;;;;;5139368;27;20287;-81
2023/03/09 13:33:19;;;;;;;26.13;22.85;;;3.60;1.00;;;;;;5148871;27;20271;-80
2023/03/09 13:35:57;;;;;;;27.83;23.77;;;3.50;1.00;;;;;;5139100;27;20729;-80
2023/03/09 13:38:29;;;;;;;31.38;22.92;;;3.50;1.00;;;;;;5141189;27;20240;-79
2023/03/09 13:40:59;;;;;;;28.50;24.45;;;3.50;1.00;;;;;;5141273;27;20226;-80
2023/03/09 13:43:29;;;;;;;32.95;25.85;;;3.40;1.00;;;;;;5129677;27;21035;-81
2023/03/09 13:46:04;;;;;;;33.75;26.75;;;3.30;1.00;;;;;;5147388;27;21179;-81
2023/03/09 13:48:34;;;;;;;31.05;26.17;;;3.20;1.00;;;;;;5145150;27;20234;-80
2023/03/09 13:51:02;;;;;;;41.33;31.85;;;3.30;1.00;;;;;;5139359;27;20230;-81
2023/03/09 13:53:31;;;;;;;34.90;25.95;;;3.40;1.00;;;;;;5147365;27;20229;-81
2023/03/09 13:56:02;;;;;;;27.63;23.90;;;3.50;1.00;;;;;;5143090;27;20230;-80
2023/03/09 13:58:30;;;;;;;31.90;24.35;;;3.60;1.00;;;;;;5145176;27;20237;-80
2023/03/09 14:01:00;;;;;;;32.33;25.85;;;3.70;1.00;;;;;;5142721;27;20658;-82
2023/03/09 14:03:29;;;;;;;30.67;24.48;;;3.70;1.00;;;;;;5163917;27;20248;-80
2023/03/09 14:06:00;;;;;;;32.58;24.92;;;3.70;1.00;;;;;;5142648;27;20234;-80
2023/03/09 14:08:33;;;;;;;29.95;24.85;;;3.70;1.00;;;;;;5139411;27;20276;-80
2023/03/09 14:11:06;;;;;;;30.20;24.20;;;3.70;1.00;;;;;;5145827;27;20329;-81
2023/03/09 14:13:36;;;;;;;27.23;24.05;;;3.70;1.00;;;;;;5146495;27;20237;-82
2023/03/09 14:16:07;;;;;;;31.65;24.33;;;3.70;1.00;;;;;;5140570;27;20737;-80
2023/03/09 14:18:42;;;;;;;32.65;26.35;;;3.60;1.00;;;;;;5138224;27;20232;-80
2023/03/09 14:21:20;;;;;;;29.17;24.33;;;3.60;1.00;;;;;;5142518;27;20416;-78
2023/03/09 14:23:50;;;;;;;32.33;28.85;;;3.70;1.00;;;;;;5135635;27;20435;-80
2023/03/09 14:26:25;;;;;;;32.65;27.75;;;3.80;1.00;;;;;;5140115;27;20497;-79
2023/03/09 14:29:05;;;;;;;31.87;28.10;;;3.90;1.00;;;;;;5134593;27;21023;-79
2023/03/09 14:31:33;;;;;;;32.65;27.83;;;3.80;1.00;;;;;;5138812;27;20419;-82
2023/03/09 14:34:03;;;;;;;32.55;29.05;;;3.70;1.00;;;;;;5141186;27;20490;-81
2023/03/09 14:36:37;;;;;;;33.08;29.00;;;3.70;1.00;;;;;;5134686;27;21227;-81
2023/03/09 14:39:24;;;;;;;30.90;26.00;;;3.70;1.00;;;;;;5143940;27;20444;-80
2023/03/09 14:42:04;;;;;;;31.35;26.13;;;3.70;1.00;;;;;;5135512;27;20240;-79
2023/03/09 14:44:35;;;;;;;33.50;24.83;;;3.70;1.00;;;;;;5136621;27;20303;-82
2023/03/09 14:47:06;;;;;;;33.38;25.98;;;3.60;1.00;;;;;;5144399;27;20248;-82
2023/03/09 14:49:33;;;;;;;33.78;27.48;;;3.50;1.00;;;;;;5134844;27;20463;-80
2023/03/09 14:52:00;;;;;;;31.27;24.88;;;3.40;1.00;;;;;;5139680;27;20242;-81
2023/03/09 14:54:29;;;;;;;29.27;25.92;;;3.50;1.00;;;;;;5141644;27;20234;-80
2023/03/09 14:56:58;;;;;;;31.08;25.17;;;3.50;1.00;;;;;;5143788;27;20329;-82
2023/03/09 14:59:26;;;;;;;31.45;24.95;;;3.50;1.00;;;;;;5142084;27;20234;-80
2023/03/09 15:01:57;;;;;;;33.58;25.02;;;3.40;1.00;;;;;;5137162;27;20230;-79
2023/03/09 15:04:25;;;;;;;34.13;26.17;;;3.30;1.00;;;;;;5136375;27;20299;-79
2023/03/09 15:06:52;;;;;;;51.58;38.05;;;3.30;1.00;;;;;;5136894;27;20234;-81
2023/03/09 15:09:19;;;;;;;30.48;23.55;;;3.30;1.00;;;;;;5133935;27;20239;-81
2023/03/09 15:11:48;;;;;;;35.67;27.02;;;3.40;1.00;;;;;;5134305;27;20245;-81
2023/03/09 15:14:21;;;;;;;30.80;24.50;;;3.40;1.00;;;;;;5138072;27;20334;-80
2023/03/09 15:16:48;;;;;;;31.40;24.30;;;3.40;1.00;;;;;;5143838;27;20234;-80
2023/03/09 15:19:17;;;;;;;34.53;24.70;;;3.40;1.00;;;;;;5136552;27;20237;-80
2023/03/09 15:21:46;;;;;;;34.13;24.33;;;3.40;1.00;;;;;;5143279;27;20259;-80
2023/03/09 15:24:15;;;;;;;31.60;24.95;;;3.40;1.00;;;;;;5140048;27;20237;-80
2023/03/09 15:26:43;;;;;;;31.50;24.00;;;3.40;1.00;;;;;;5141678;27;20222;-80
2023/03/09 15:29:11;;;;;;;33.35;24.58;;;3.40;1.00;;;;;;5142795;27;20299;-81
2023/03/09 15:31:41;;;;;;;35.95;25.02;;;3.30;1.00;;;;;;5142686;27;20239;-80
2023/03/09 15:34:10;;;;;;;30.13;23.92;;;3.30;1.00;;;;;;5141715;27;20290;-81
2023/03/09 15:36:37;;;;;;;31.85;25.40;;;3.30;1.00;;;;;;5138635;27;20242;-80
2023/03/09 15:39:04;;;;;;;34.17;26.40;;;3.30;1.00;;;;;;5155304;27;20238;-80
2023/03/09 15:41:31;;;;;;;34.53;25.10;;;3.30;1.00;;;;;;5146076;27;20320;-81
2023/03/09 15:43:58;;;;;;;37.08;26.70;;;3.30;1.00;;;;;;5140207;27;20285;-80
2023/03/09 15:46:27;;;;;;;33.92;25.35;;;3.40;1.00;;;;;;5131566;27;20266;-79
2023/03/09 15:48:55;;;;;;;31.52;25.05;;;3.40;1.00;;;;;;5136162;27;20245;-81
2023/03/09 15:51:22;;;;;;;35.30;27.02;;;3.40;1.00;;;;;;5143311;27;20250;-81
2023/03/09 15:53:53;;;;;;;30.60;24.95;;;3.40;1.00;;;;;;5139957;27;20253;-80
2023/03/09 15:56:20;;;;;;;37.13;27.23;;;3.30;1.00;;;;;;5142292;27;20283;-79
2023/03/09 15:58:47;;;;;;;31.40;23.98;;;3.30;1.00;;;;;;5136160;27;20243;-80
2023/03/09 16:01:20;;;;;;;33.05;24.02;;;3.20;1.00;;;;;;5140262;27;20345;-79
2023/03/09 16:03:50;;;;;;;35.83;27.17;;;3.30;1.00;;;;;;5137704;27;20234;-80
2023/03/09 16:06:18;;;;;;;34.15;25.25;;;3.30;1.00;;;;;;5134074;27;20703;-80
2023/03/09 16:08:45;;;;;;;32.42;24.05;;;3.30;1.00;;;;;;5137339;27;20250;-81
2023/03/09 16:11:12;;;;;;;34.55;26.35;;;3.20;1.00;;;;;;5136849;27;20338;-83
2023/03/09 16:13:42;;;;;;;36.42;25.75;;;3.30;1.00;;;;;;5139287;27;20283;-80
2023/03/09 16:16:11;;;;;;;33.50;24.75;;;3.20;1.00;;;;;;5134768;27;20238;-82
2023/03/09 16:18:39;;;;;;;39.83;27.45;;;3.10;1.00;;;;;;5134363;27;21006;-82
2023/03/09 16:21:10;;;;;;;37.28;26.35;;;3.10;1.00;;;;;;5132316;27;20325;-79
2023/03/09 16:23:38;;;;;;;33.75;24.88;;;3.20;1.00;;;;;;5139586;27;20238;-84
2023/03/09 16:26:05;;;;;;;30.55;25.60;;;3.20;1.00;;;;;;5136810;27;20245;-80
2023/03/09 16:28:32;;;;;;;36.83;24.67;;;3.20;1.00;;;;;;5135247;27;21086;-79
2023/03/09 16:30:59;;;;;;;36.67;25.08;;;3.20;1.00;;;;;;5145452;27;20280;-80
2023/03/09 16:33:26;;;;;;;37.38;28.05;;;3.20;1.00;;;;;;5146766;27;20242;-80
2023/03/09 16:35:58;;;;;;;35.13;26.50;;;3.20;1.00;;;;;;5150499;27;20231;-79
2023/03/09 16:38:29;;;;;;;36.30;26.27;;;3.30;1.00;;;;;;5149835;27;20233;-79
2023/03/09 16:40:56;;;;;;;35.00;24.83;;;3.20;1.00;;;;;;5144146;27;20237;-79
2023/03/09 16:43:24;;;;;;;32.70;24.27;;;3.10;1.00;;;;;;5143592;27;20240;-80
2023/03/09 16:45:53;;;;;;;33.25;24.98;;;3.20;1.00;;;;;;5140885;27;20246;-79
2023/03/09 16:48:21;;;;;;;37.05;28.13;;;3.20;1.00;;;;;;5141712;27;20327;-80
2023/03/09 16:50:48;;;;;;;31.60;25.15;;;3.20;1.00;;;;;;5136817;27;20313;-79
2023/03/09 16:53:15;;;;;;;38.00;26.90;;;3.30;1.00;;;;;;5145106;27;20245;-80
2023/03/09 16:55:43;;;;;;;35.20;26.25;;;3.30;1.00;;;;;;5146912;27;20263;-80
2023/03/09 16:58:10;;;;;;;34.75;26.35;;;3.40;1.00;;;;;;5146199;27;20977;-82
2023/03/09 17:00:37;;;;;;;36.45;25.80;;;3.30;1.00;;;;;;5139120;27;20328;-81
2023/03/09 17:03:05;;;;;;;38.15;27.20;;;3.20;1.00;;;;;;5137762;27;20961;-80
2023/03/09 17:05:32;;;;;;;40.53;28.83;;;3.20;1.00;;;;;;5140884;27;20234;-79
2023/03/09 17:07:59;;;;;;;33.80;25.60;;;3.20;1.00;;;;;;5145282;27;20230;-81
2023/03/09 17:10:26;;;;;;;33.95;25.10;;;3.10;1.00;;;;;;5148083;27;20230;-79
2023/03/09 17:12:54;;;;;;;31.60;25.88;;;3.10;1.00;;;;;;5143248;27;20266;-81
2023/03/09 17:15:22;;;;;;;34.75;25.60;;;3.10;1.00;;;;;;5148227;27;20309;-81
2023/03/09 17:17:49;;;;;;;33.63;24.92;;;3.10;1.00;;;;;;5149225;27;20231;-80
2023/03/09 17:20:16;;;;;;;39.00;26.83;;;3.00;1.00;;;;;;5154613;27;20817;-82
2023/03/09 17:22:44;;;;;;;37.70;27.77;;;3.00;1.00;;;;;;5149472;27;20263;-82
2023/03/09 17:25:17;;;;;;;36.40;28.27;;;2.90;1.00;;;;;;5152565;27;20222;-79
2023/03/09 17:27:44;;;;;;;38.20;26.85;;;2.90;1.00;;;;;;5145179;27;20374;-80
2023/03/09 17:30:14;;;;;;;36.15;28.15;;;2.80;1.00;;;;;;5146875;27;20268;-79
2023/03/09 17:32:41;;;;;;;44.63;29.45;;;2.80;1.00;;;;;;5150257;27;20230;-81
2023/03/09 17:35:09;;;;;;;36.50;26.70;;;2.80;1.00;;;;;;5147228;27;20215;-80
2023/03/09 17:37:36;;;;;;;38.20;28.05;;;2.80;1.00;;;;;;5146412;27;21078;-79
2023/03/09 17:40:06;;;;;;;38.92;33.35;;;2.80;1.00;;;;;;5147862;27;20239;-80
2023/03/09 17:42:35;;;;;;;34.75;26.77;;;2.80;1.00;;;;;;5147466;27;20317;-80
2023/03/09 17:45:02;;;;;;;40.67;26.80;;;2.80;1.00;;;;;;5153018;27;20237;-79
2023/03/09 17:47:32;;;;;;;36.50;27.17;;;2.80;1.00;;;;;;5148235;27;20236;-78
2023/03/09 17:50:00;;;;;;;37.88;25.45;;;2.90;1.00;;;;;;5145925;27;20621;-79
2023/03/09 17:52:27;;;;;;;39.53;26.08;;;2.90;1.00;;;;;;5152585;27;20238;-80
2023/03/09 17:54:54;;;;;;;42.80;31.20;;;3.00;1.00;;;;;;5153160;27;20949;-79
2023/03/09 17:57:21;;;;;;;37.90;27.50;;;3.00;1.00;;;;;;5147537;27;20989;-79
2023/03/09 17:59:48;;;;;;;43.80;27.20;;;2.90;1.00;;;;;;5148847;27;20295;-80
2023/03/09 18:02:17;;;;;;;36.72;25.60;;;2.90;1.00;;;;;;5149235;27;20249;-79
2023/03/09 18:04:47;;;;;;;36.78;27.17;;;2.90;1.00;;;;;;5147329;27;20291;-79
2023/03/09 18:07:15;;;;;;;34.42;25.73;;;2.90;1.00;;;;;;5149807;27;20238;-79
2023/03/09 18:09:43;;;;;;;75.95;42.10;;;2.90;1.00;;;;;;5141649;27;20245;-79
2023/03/09 18:12:11;;;;;;;32.95;26.52;;;2.90;1.00;;;;;;5150625;27;20314;-79
2023/03/09 18:14:38;;;;;;;40.38;27.70;;;2.80;1.00;;;;;;5143493;27;20944;-79
2023/03/09 18:17:05;;;;;;;36.78;26.90;;;2.80;1.00;;;;;;5143044;27;20315;-79
2023/03/09 18:19:32;;;;;;;40.25;27.38;;;2.70;1.00;;;;;;5135062;27;20938;-79
2023/03/09 18:22:04;;;;;;;37.05;25.30;;;2.70;1.00;;;;;;5139137;27;20484;-79
2023/03/09 18:24:31;;;;;;;37.15;26.80;;;2.70;1.00;;;;;;5141235;27;20622;-79
2023/03/09 18:26:58;;;;;;;41.97;28.55;;;2.70;1.00;;;;;;5138681;27;20262;-80
2023/03/09 18:29:24;;;;;;;32.47;26.25;;;2.70;1.00;;;;;;5141443;27;20322;-79
2023/03/09 18:31:52;;;;;;;40.70;28.60;;;2.60;1.00;;;;;;5141770;27;20234;-79
2023/03/09 18:34:19;;;;;;;35.25;26.38;;;2.60;1.00;;;;;;5143514;27;20815;-78
2023/03/09 18:36:46;;;;;;;39.97;28.77;;;2.60;1.00;;;;;;5143562;27;20322;-79
2023/03/09 18:39:14;;;;;;;37.60;27.48;;;2.50;1.00;;;;;;5148032;27;20234;-79
2023/03/09 18:41:41;;;;;;;40.28;28.85;;;2.50;1.00;;;;;;5149035;27;20306;-79
2023/03/09 18:44:08;;;;;;;40.58;29.20;;;2.50;1.00;;;;;;5156491;27;20774;-80
2023/03/09 18:46:36;;;;;;;39.00;29.40;;;2.50;1.00;;;;;;5144038;27;20241;-80
2023/03/09 18:49:02;;;;;;;37.83;28.48;;;2.50;1.00;;;;;;5142147;27;20309;-80
2023/03/09 18:51:30;;;;;;;39.35;28.38;;;2.50;1.00;;;;;;5137752;27;20238;-80
2023/03/09 18:53:57;;;;;;;39.25;27.05;;;2.40;1.00;;;;;;5147804;27;20230;-79
2023/03/09 18:56:25;;;;;;;39.80;28.10;;;2.50;1.00;;;;;;5144323;27;20277;-79
2023/03/09 18:58:55;;;;;;;38.10;28.23;;;2.50;1.00;;;;;;5141879;27;21016;-79
2023/03/09 19:01:22;;;;;;;35.90;26.65;;;2.50;1.00;;;;;;5146181;27;20291;-81
2023/03/09 19:03:49;;;;;;;41.55;28.48;;;2.40;1.00;;;;;;5138118;27;20226;-80
2023/03/09 19:06:18;;;;;;;41.35;29.73;;;2.40;1.00;;;;;;5136286;27;20242;-81
2023/03/09 19:08:45;;;;;;;34.92;26.33;;;2.40;1.00;;;;;;5142440;27;20247;-81
2023/03/09 19:11:14;;;;;;;39.80;28.45;;;2.40;1.00;;;;;;5148437;27;20299;-81
2023/03/09 19:13:42;;;;;;;39.67;28.05;;;2.40;1.00;;;;;;5143885;27;20337;-81
2023/03/09 19:16:09;;;;;;;42.00;27.20;;;2.30;1.00;;;;;;5145074;27;20266;-81
2023/03/09 19:18:36;;;;;;;33.58;25.80;;;2.40;1.00;;;;;;5146472;27;20345;-81
2023/03/09 19:21:07;;;;;;;35.08;27.80;;;2.40;1.00;;;;;;5148289;27;21744;-81
2023/03/09 19:23:34;;;;;;;48.88;33.90;;;2.40;1.00;;;;;;5144909;27;20234;-80
2023/03/09 19:26:02;;;;;;;35.03;25.95;;;2.40;1.00;;;;;;5150420;27;20336;-80
2023/03/09 19:28:29;;;;;;;38.17;28.45;;;2.40;1.00;;;;;;5142827;27;20261;-80
2023/03/09 19:31:05;;;;;;;35.00;25.88;;;2.40;1.00;;;;;;5139278;27;21258;-82
2023/03/09 19:33:32;;;;;;;43.63;30.77;;;2.40;1.00;;;;;;5132775;27;20266;-82
2023/03/09 19:36:00;;;;;;;39.67;27.88;;;2.40;1.00;;;;;;5133431;27;20242;-81
2023/03/09 19:38:27;;;;;;;38.00;27.92;;;2.40;1.00;;;;;;5142011;27;20230;-80
2023/03/09 19:40:59;;;;;;;34.33;26.65;;;2.40;1.00;;;;;;5143446;27;20313;-80
2023/03/09 19:43:27;;;;;;;37.65;28.02;;;2.40;1.00;;;;;;5143774;27;20318;-80
2023/03/09 19:45:59;;;;;;;35.67;25.80;;;2.40;1.00;;;;;;5142354;27;20240;-81
2023/03/09 19:48:28;;;;;;;36.28;26.02;;;2.40;1.00;;;;;;5139007;27;22409;-80
2023/03/09 19:51:06;;;;;;;37.38;27.45;;;2.40;1.00;;;;;;5139633;27;20235;-79
2023/03/09 19:53:34;;;;;;;36.80;25.83;;;2.40;1.00;;;;;;5168971;27;20241;-80
2023/03/09 19:56:03;;;;;;;37.90;27.80;;;2.50;1.00;;;;;;5136630;27;20242;-80
2023/03/09 19:58:30;;;;;;;39.70;26.95;;;2.40;1.00;;;;;;5133644;27;20420;-81
2023/03/09 20:00:57;;;;;;;39.78;28.65;;;2.30;1.00;;;;;;5139163;27;20234;-80
2023/03/09 20:03:25;;;;;;;44.10;29.42;;;2.30;1.00;;;;;;5140397;27;20329;-79
2023/03/09 20:06:00;;;;;;;39.95;28.55;;;2.20;1.00;;;;;;5145537;27;20234;-81
2023/03/09 20:08:27;;;;;;;43.70;30.73;;;2.20;1.00;;;;;;5137545;27;20985;-81
2023/03/09 20:10:54;;;;;;;41.65;27.42;;;2.30;1.00;;;;;;5137408;27;21937;-81
2023/03/09 20:13:21;;;;;;;38.72;28.38;;;2.20;1.00;;;;;;5167232;27;20226;-81
2023/03/09 20:15:49;;;;;;;39.13;28.25;;;2.20;1.00;;;;;;5138036;27;20237;-80
2023/03/09 20:18:16;;;;;;;40.30;28.80;;;2.30;1.00;;;;;;5142139;27;20412;-80
2023/03/09 20:20:43;;;;;;;40.58;30.63;;;2.30;1.00;;;;;;5166912;27;20703;-80
2023/03/09 20:23:11;;;;;;;41.03;29.40;;;2.30;1.00;;;;;;5173472;27;20294;-80
2023/03/09 20:25:39;;;;;;;39.30;30.10;;;2.30;1.00;;;;;;5142372;27;20258;-79
2023/03/09 20:28:07;;;;;;;45.45;30.10;;;2.30;1.00;;;;;;5139635;27;20329;-80
2023/03/09 20:30:34;;;;;;;42.78;30.98;;;2.20;1.00;;;;;;5140984;27;20242;-79
2023/03/09 20:33:01;;;;;;;39.42;29.00;;;2.30;1.00;;;;;;5143846;27;20222;-79
2023/03/09 20:35:29;;;;;;;40.58;28.88;;;2.40;1.00;;;;;;5141251;27;20982;-79
2023/03/09 20:37:57;;;;;;;41.97;28.90;;;2.40;1.00;;;;;;5147243;27;21050;-79
2023/03/09 20:40:27;;;;;;;40.97;30.63;;;2.40;1.00;;;;;;5141300;27;20233;-80
2023/03/09 20:42:54;;;;;;;39.28;28.63;;;2.50;1.00;;;;;;5143696;27;20245;-80
2023/03/09 20:45:21;;;;;;;45.67;30.02;;;2.40;1.00;;;;;;5147008;27;20234;-81
2023/03/09 20:47:49;;;;;;;39.33;28.55;;;2.40;1.00;;;;;;5142815;27;20234;-80
2023/03/09 20:50:17;;;;;;;39.67;29.42;;;2.40;1.00;;;;;;5149240;27;20233;-81
2023/03/09 20:52:48;;;;;;;43.85;31.20;;;2.40;1.00;;;;;;5134472;27;26104;-81
2023/03/09 20:55:16;;;;;;;42.45;27.90;;;2.40;1.00;;;;;;5133267;27;20230;-80
2023/03/09 20:57:44;;;;;;;42.38;29.15;;;2.40;1.00;;;;;;5135698;27;21594;-80
2023/03/09 21:00:13;;;;;;;40.40;29.27;;;2.50;1.00;;;;;;5137106;27;20257;-80
2023/03/09 21:02:41;;;;;;;44.60;29.63;;;2.30;1.00;;;;;;5134849;27;20814;-80
2023/03/09 21:05:10;;;;;;;43.47;29.63;;;2.40;1.00;;;;;;5135522;27;20238;-80
2023/03/09 21:07:37;;;;;;;36.22;28.35;;;2.40;1.00;;;;;;5139198;27;20356;-79
2023/03/09 21:10:06;;;;;;;48.53;31.50;;;2.40;1.00;;;;;;5138754;27;20307;-79
2023/03/09 21:12:33;;;;;;;45.33;31.48;;;2.30;1.00;;;;;;5138767;27;20318;-79
2023/03/09 21:15:02;;;;;;;39.38;28.60;;;2.40;1.00;;;;;;5140011;27;20271;-79
2023/03/09 21:17:30;;;;;;;44.05;30.38;;;2.40;1.00;;;;;;5141634;27;20274;-80
2023/03/09 21:19:57;;;;;;;43.20;29.42;;;2.40;1.00;;;;;;5138849;27;20257;-78
2023/03/09 21:22:25;;;;;;;42.35;29.80;;;2.40;1.00;;;;;;5146047;27;20292;-80
2023/03/09 21:24:53;;;;;;;43.97;29.05;;;2.40;1.00;;;;;;5151406;27;20260;-79
2023/03/09 21:27:21;;;;;;;39.50;27.02;;;2.40;1.00;;;;;;5135558;27;20238;-79
2023/03/09 21:29:48;;;;;;;45.03;31.30;;;2.40;1.00;;;;;;5139028;27;20280;-79
2023/03/09 21:32:16;;;;;;;46.53;30.42;;;2.40;1.00;;;;;;5135121;27;20349;-79
2023/03/09 21:34:46;;;;;;;43.97;31.67;;;2.50;1.00;;;;;;5136641;27;20449;-78
2023/03/09 21:37:13;;;;;;;43.67;29.15;;;2.40;1.00;;;;;;5136646;27;20231;-79
2023/03/09 21:39:40;;;;;;;38.53;26.60;;;2.40;1.00;;;;;;5139795;27;20295;-78
2023/03/09 21:42:07;;;;;;;39.10;27.38;;;2.40;1.00;;;;;;5131844;27;20334;-78
2023/03/09 21:44:34;;;;;;;38.50;27.17;;;2.50;1.00;;;;;;5133926;27;20929;-79
2023/03/09 21:47:01;;;;;;;40.30;26.20;;;2.50;1.00;;;;;;5137329;27;20246;-78
2023/03/09 21:49:30;;;;;;;37.60;25.90;;;2.50;1.00;;;;;;5131400;27;20365;-78
2023/03/09 21:51:57;;;;;;;34.90;26.00;;;2.50;1.00;;;;;;5130987;27;20227;-78
2023/03/09 21:54:24;;;;;;;38.67;25.63;;;2.40;1.00;;;;;;5136505;27;20291;-79